createdAt,value
2022-10-09T00:04:13.999Z,6.20
2022-10-09T00:09:18.849Z,5.50
2022-10-09T00:14:22.153Z,5.20
2022-10-09T00:19:25.570Z,6.90
2022-10-09T00:24:28.888Z,7.50
2022-10-09T00:29:32.909Z,5.60
2022-10-09T00:34:36.217Z,4.70
2022-10-09T00:39:39.732Z,5.30
2022-10-09T00:45:01.122Z,6.80
2022-10-09T00:50:22.711Z,4.70
2022-10-09T00:55:29.195Z,6.60
2022-10-09T01:00:33.224Z,4.10
2022-10-09T01:06:35.869Z,6.30
2022-10-09T01:11:55.342Z,3.40
2022-10-09T01:17:44.297Z,4.90
2022-10-09T01:23:11.981Z,6.00
2022-10-09T01:28:17.307Z,4.80
2022-10-09T01:33:20.650Z,4.30
2022-10-09T01:38:25.388Z,4.70
2022-10-09T01:43:28.676Z,9.90
2022-10-09T01:48:32.737Z,4.80
2022-10-09T01:53:37.446Z,4.70
2022-10-09T01:59:07.452Z,5.30
2022-10-09T02:04:14.930Z,5.70
2022-10-09T02:09:18.977Z,4.90
2022-10-09T02:14:22.831Z,2.80
2022-10-09T02:19:43.294Z,5.00
2022-10-09T02:24:47.774Z,7.30
2022-10-09T02:29:52.476Z,3.50
2022-10-09T02:34:55.919Z,4.60
2022-10-09T02:39:59.203Z,4.10
2022-10-09T02:45:02.615Z,4.70
2022-10-09T02:50:07.277Z,5.30
2022-10-09T02:55:10.676Z,7.20
2022-10-09T03:00:15.179Z,26.30
2022-10-09T03:05:18.671Z,28.70
2022-10-09T03:10:22.450Z,8.70
2022-10-09T03:15:25.762Z,6.40
2022-10-09T03:20:31.880Z,7.30
2022-10-09T03:25:35.170Z,5.10
2022-10-09T03:30:42.187Z,4.40
2022-10-09T03:35:50.381Z,4.80
2022-10-09T03:40:54.830Z,5.60
2022-10-09T03:46:01.094Z,5.20
2022-10-09T03:51:05.100Z,7.30
2022-10-09T03:56:08.532Z,3.80
2022-10-09T04:01:11.935Z,7.10
2022-10-09T04:06:15.904Z,5.00
2022-10-09T04:11:19.391Z,5.90
2022-10-09T04:16:22.696Z,5.20
2022-10-09T04:21:26.112Z,4.80
2022-10-09T04:26:29.426Z,5.90
2022-10-09T04:31:32.868Z,5.00
2022-10-09T04:36:36.187Z,4.90
2022-10-09T04:41:39.464Z,7.60
2022-10-09T04:46:43.097Z,4.90
2022-10-09T04:51:46.502Z,3.10
2022-10-09T04:56:49.805Z,4.00
2022-10-09T05:01:53.174Z,4.50
2022-10-09T05:06:56.639Z,4.70
2022-10-09T05:12:00.255Z,4.80
2022-10-09T05:17:14.592Z,4.50
2022-10-09T05:22:18.343Z,6.20
2022-10-09T05:27:21.654Z,5.60
2022-10-09T05:32:24.980Z,5.90
2022-10-09T05:37:28.206Z,6.00
2022-10-09T05:42:31.597Z,4.50
2022-10-09T05:47:35.115Z,6.10
2022-10-09T05:52:40.297Z,5.70
2022-10-09T05:57:43.657Z,5.10
2022-10-09T06:02:47.191Z,5.50
2022-10-09T06:07:51.019Z,6.20
2022-10-09T06:12:54.231Z,7.70
2022-10-09T06:17:58.045Z,10.70
2022-10-09T06:23:01.356Z,8.90
2022-10-09T06:28:04.873Z,14.40
2022-10-09T06:33:08.391Z,7.10
2022-10-09T06:38:11.910Z,6.60
2022-10-09T06:43:15.232Z,4.90
2022-10-09T06:48:18.836Z,5.30
2022-10-09T06:53:22.146Z,5.90
2022-10-09T06:58:26.161Z,4.40
2022-10-09T07:03:29.741Z,3.90
2022-10-09T07:08:34.082Z,6.80
2022-10-09T07:13:38.097Z,8.00
2022-10-09T07:18:41.576Z,4.40
2022-10-09T07:23:44.992Z,3.90
2022-10-09T07:28:49.465Z,4.60
2022-10-09T07:33:56.834Z,4.10
2022-10-09T07:39:00.660Z,4.70
2022-10-09T07:44:04.070Z,7.80
2022-10-09T07:49:07.537Z,3.60
2022-10-09T07:54:10.802Z,3.90
2022-10-09T07:59:16.459Z,6.60
2022-10-09T08:04:19.975Z,3.00
2022-10-09T08:09:23.492Z,13.70
2022-10-09T08:14:28.235Z,10.80
2022-10-09T08:19:31.680Z,4.70
2022-10-09T08:24:34.979Z,3.70
2022-10-09T08:29:40.394Z,5.90
2022-10-09T08:34:43.947Z,4.50
2022-10-09T08:39:47.222Z,5.80
2022-10-09T08:44:50.801Z,4.20
2022-10-09T08:50:02.374Z,5.10
2022-10-09T08:55:26.167Z,4.20
2022-10-09T09:00:45.250Z,5.80
2022-10-09T09:06:26.350Z,3.10
2022-10-09T09:12:19.480Z,4.80
2022-10-09T09:17:56.328Z,5.80
2022-10-09T09:23:02.203Z,5.50
2022-10-09T09:28:29.214Z,7.80
2022-10-09T09:33:45.071Z,5.70
2022-10-09T09:39:28.623Z,5.20
2022-10-09T09:44:17.497Z,4.70
2022-10-09T09:49:27.459Z,6.20
2022-10-09T09:54:31.512Z,6.00
2022-10-09T09:59:40.810Z,6.30
2022-10-09T10:04:53.261Z,4.30
2022-10-09T10:10:27.824Z,5.40
2022-10-09T10:15:34.819Z,4.70
2022-10-09T10:21:17.223Z,17.70
2022-10-09T10:26:42.322Z,14.30
2022-10-09T10:32:00.330Z,14.90
2022-10-09T10:37:15.711Z,10.80
2022-10-09T10:42:47.378Z,7.70
2022-10-09T10:47:56.532Z,7.00
2022-10-09T10:53:46.233Z,11.40
2022-10-09T10:59:26.615Z,8.10
2022-10-09T11:04:51.193Z,4.90
2022-10-09T11:10:05.859Z,5.60
2022-10-09T11:15:22.695Z,5.20
2022-10-09T11:20:59.566Z,5.40
2022-10-09T11:26:27.208Z,5.60
2022-10-09T11:31:53.614Z,3.80
2022-10-09T11:36:59.944Z,4.80
2022-10-09T11:42:04.893Z,5.20
2022-10-09T11:47:45.173Z,2.80
2022-10-09T11:53:11.377Z,3.10
2022-10-09T11:58:26.175Z,4.40
2022-10-09T12:03:37.296Z,12.20
2022-10-09T12:09:07.540Z,14.20
2022-10-09T12:14:23.854Z,8.20
2022-10-09T12:19:38.329Z,8.80
2022-10-09T12:24:47.173Z,5.80
2022-10-09T12:30:13.496Z,5.00
2022-10-09T12:35:29.119Z,7.30
2022-10-09T12:40:34.294Z,6.80
2022-10-09T12:45:44.892Z,3.00
2022-10-09T12:50:49.295Z,5.20
2022-10-09T12:56:01.473Z,2.50
2022-10-09T13:01:08.251Z,2.70
2022-10-09T13:06:19.304Z,4.90
2022-10-09T13:11:41.164Z,5.60
2022-10-09T13:16:47.816Z,3.40
2022-10-09T13:22:25.451Z,4.00
2022-10-09T13:27:35.182Z,3.30
2022-10-09T13:32:38.527Z,9.40
2022-10-09T13:37:42.461Z,7.60
2022-10-09T13:42:58.463Z,4.40
2022-10-09T13:48:02.186Z,2.90
2022-10-09T13:53:05.908Z,3.70
2022-10-09T13:58:09.730Z,3.70
2022-10-09T14:03:13.447Z,3.80
2022-10-09T14:08:16.812Z,3.30
2022-10-09T14:13:20.993Z,3.90
2022-10-09T14:18:24.612Z,2.60
2022-10-09T14:23:28.027Z,2.80
2022-10-09T14:28:31.918Z,2.00
2022-10-09T14:33:35.467Z,7.10
2022-10-09T14:38:42.981Z,5.10
2022-10-09T14:43:48.239Z,6.20
2022-10-09T14:48:55.234Z,4.20
2022-10-09T14:53:58.955Z,5.50
2022-10-09T14:59:03.325Z,6.30
2022-10-09T15:04:07.099Z,5.70
2022-10-09T15:09:11.143Z,5.90
2022-10-09T15:14:14.460Z,3.10
2022-10-09T15:19:17.970Z,3.50
2022-10-09T15:24:21.205Z,4.50
2022-10-09T15:29:24.801Z,5.90
2022-10-09T15:34:29.549Z,3.40
2022-10-09T15:39:34.197Z,5.20
2022-10-09T15:44:37.667Z,8.80
2022-10-09T15:49:44.871Z,10.20
2022-10-09T15:54:48.317Z,7.30
2022-10-09T15:59:51.731Z,9.40
2022-10-09T16:04:55.007Z,8.40
2022-10-09T16:09:59.274Z,7.70
2022-10-09T16:15:02.895Z,5.40
2022-10-09T16:20:07.717Z,6.60
2022-10-09T16:25:11.564Z,7.30
2022-10-09T16:30:14.978Z,7.00
2022-10-09T16:35:18.495Z,7.50
2022-10-09T16:40:32.687Z,5.70
2022-10-09T16:45:45.455Z,5.20
2022-10-09T16:50:48.913Z,9.10
2022-10-09T16:55:52.230Z,10.20
2022-10-09T17:01:03.901Z,13.90
2022-10-09T17:06:13.910Z,12.20
2022-10-09T17:11:18.720Z,20.40
2022-10-09T17:16:25.954Z,13.60
2022-10-09T17:21:34.149Z,18.10
2022-10-09T17:26:38.026Z,17.60
2022-10-09T17:31:41.627Z,13.00
2022-10-09T17:36:45.741Z,43.30
2022-10-09T17:41:49.265Z,65.00
2022-10-09T17:46:53.061Z,25.00
2022-10-09T17:51:56.432Z,22.80
2022-10-09T17:57:01.574Z,20.90
2022-10-09T18:02:06.030Z,26.70
2022-10-09T18:07:09.363Z,22.50
2022-10-09T18:12:12.717Z,20.00
2022-10-09T18:17:16.033Z,16.20
2022-10-09T18:22:19.439Z,23.50
2022-10-09T18:27:24.188Z,14.20
2022-10-09T18:32:27.600Z,15.60
2022-10-09T18:37:30.923Z,15.60
2022-10-09T18:42:36.065Z,19.70
2022-10-09T18:47:40.815Z,18.10
2022-10-09T18:52:45.559Z,10.90
2022-10-09T18:57:49.071Z,13.70
2022-10-09T19:02:52.486Z,18.00
2022-10-09T19:07:55.971Z,16.30
2022-10-09T19:12:59.418Z,16.40
2022-10-09T19:18:02.917Z,16.20
2022-10-09T19:23:06.197Z,15.50
2022-10-09T19:28:09.535Z,17.50
2022-10-09T19:33:14.065Z,18.60
2022-10-09T19:38:18.925Z,25.30
2022-10-09T19:43:24.478Z,21.30
2022-10-09T19:48:27.814Z,23.40
2022-10-09T19:53:31.290Z,22.00
2022-10-09T19:58:34.548Z,15.90
2022-10-09T20:03:39.840Z,21.50
2022-10-09T20:08:45.344Z,23.30
2022-10-09T20:13:55.564Z,23.00
2022-10-09T20:19:02.731Z,24.80
2022-10-09T20:24:06.929Z,21.40
2022-10-09T20:29:10.595Z,20.00
2022-10-09T20:34:13.835Z,19.10
2022-10-09T20:39:19.713Z,23.00
2022-10-09T20:44:23.392Z,20.80
2022-10-09T20:49:27.029Z,17.80
2022-10-09T20:54:30.709Z,17.20
2022-10-09T20:59:34.155Z,19.90
2022-10-09T21:04:37.566Z,17.00
2022-10-09T21:09:40.977Z,18.50
2022-10-09T21:14:44.400Z,19.70
2022-10-09T21:19:50.726Z,18.10
2022-10-09T21:24:54.085Z,16.60
2022-10-09T21:29:57.398Z,14.40
2022-10-09T21:35:00.711Z,16.50
2022-10-09T21:40:05.342Z,14.70
2022-10-09T21:45:09.855Z,21.00
2022-10-09T21:50:13.201Z,12.40
2022-10-09T21:55:16.852Z,13.10
2022-10-09T22:00:21.064Z,10.20
2022-10-09T22:05:24.479Z,9.50
2022-10-09T22:10:27.870Z,10.80
2022-10-09T22:15:31.197Z,8.90
2022-10-09T22:20:39.807Z,9.50
2022-10-09T22:25:43.240Z,8.40
2022-10-09T22:30:46.491Z,7.70
2022-10-09T22:35:49.764Z,8.80
2022-10-09T22:40:53.117Z,12.10
2022-10-09T22:45:56.507Z,6.80
2022-10-09T22:51:03.336Z,13.30
2022-10-09T22:56:15.355Z,9.00
2022-10-09T23:01:31.749Z,8.60
2022-10-09T23:06:35.532Z,10.30
2022-10-09T23:11:39.142Z,10.60
2022-10-09T23:16:43.413Z,9.60
2022-10-09T23:21:47.520Z,7.40
2022-10-09T23:26:52.234Z,10.30
2022-10-09T23:31:55.545Z,9.60
2022-10-09T23:36:58.955Z,13.30
2022-10-09T23:42:02.248Z,10.00
2022-10-09T23:47:05.612Z,9.80
2022-10-09T23:52:08.984Z,6.80
2022-10-09T23:57:12.340Z,7.50
